Hwy 51 at Exposition Atmospheric Data: 02/26/2021 Summary  Detailed Graphs  Station List

  Temperature     Wind Precipitation Visibility
Timestamp Air Wet
Bulb
Dew-
point
24-hr
Max
24-hr
Min
Relative
Humidity
Atmospheric
Pressure
Avg
Speed
Avg
Dir
Spot
Speed
Spot
Dir
Max
Speed
Max
Dir
  Rate Situation Start End 1 hr 3 hr 6 hr 12 hr 24 hr   Situation
Date Time °F °F °F °F °F % in Hg mph ° mph ° mph ° Y/N in/hr text Date Time Date Time in in in in in mi text
02/26/2021 12:14 AM 45.68 38.84 29.66 68.18 43.16 53.0 Not Reported 1.34 S 1.57 S 2.24 S No 0.000 No Precipitation 02/24/2021 11:26 PM 02/24/2021 11:31 PM 0.000 0.000 0.000 0.000 0.000 4.66 Clear
02/26/2021 12:29 AM 45.32 38.66 29.84 68.18 43.16 54.0 Not Reported 2.91 S 2.46 S 2.24 S No 0.000 No Precipitation 02/24/2021 11:26 PM 02/24/2021 11:31 PM 0.000 0.000 0.000 0.000 0.000 4.66 Clear
02/26/2021 12:44 AM 45.32 39.02 30.74 68.18 43.16 56.0 Not Reported 2.68 SE 2.24 SE 4.25 SE No 0.000 No Precipitation 02/24/2021 11:26 PM 02/24/2021 11:31 PM 0.000 0.000 0.000 0.000 0.000 4.66 Clear
02/26/2021 12:59 AM 45.50 39.20 30.74 68.18 43.16 56.0 Not Reported 0.00 SE 0.00 SW 3.13 SE No 0.000 No Precipitation 02/24/2021 11:26 PM 02/24/2021 11:31 PM 0.000 0.000 0.000 0.000 0.000 4.66 Clear
02/26/2021 01:14 AM 44.42 38.66 31.10 68.18 43.16 59.0 Not Reported 0.00 N 0.00 SE 2.46 SE No 0.000 No Precipitation 02/24/2021 11:26 PM 02/24/2021 11:31 PM 0.000 0.000 0.000 0.000 0.000 4.66 Clear
02/26/2021 01:29 AM 43.34 37.94 30.92 68.18 43.16 61.0 Not Reported 0.45 SE 0.00 SE 0.89 S No 0.000 No Precipitation 02/24/2021 11:26 PM 02/24/2021 11:31 PM 0.000 0.000 0.000 0.000 0.000 4.66 Clear
02/26/2021 01:44 AM 42.26 37.58 31.46 68.18 43.16 65.0 Not Reported 1.79 SE 2.24 SE 2.01 SE No 0.000 No Precipitation 02/24/2021 11:26 PM 02/24/2021 11:31 PM 0.000 0.000 0.000 0.000 0.000 4.64 Clear
02/26/2021 01:59 AM 41.36 37.40 32.00 68.18 43.16 69.0 Not Reported 2.24 SE 0.67 SE 2.68 S No 0.000 No Precipitation 02/24/2021 11:26 PM 02/24/2021 11:31 PM 0.000 0.000 0.000 0.000 0.000 4.42 Clear
02/26/2021 02:14 AM 42.08 37.58 31.64 68.18 43.16 66.0 Not Reported 1.12 SE 1.34 SE 2.46 SE No 0.000 No Precipitation 02/24/2021 11:26 PM 02/24/2021 11:31 PM 0.000 0.000 0.000 0.000 0.000 4.66 Clear
02/26/2021 02:29 AM 43.34 38.12 31.28 68.18 43.16 62.0 Not Reported 0.89 SE 0.00 SE 2.01 E No 0.000 No Precipitation 02/24/2021 11:26 PM 02/24/2021 11:31 PM 0.000 0.000 0.000 0.000 0.000 4.66 Clear
02/26/2021 02:44 AM 43.52 38.48 31.82 68.18 43.16 63.0 Not Reported 0.00 N 0.22 W 1.34 SE No 0.000 No Precipitation 02/24/2021 11:26 PM 02/24/2021 11:31 PM 0.000 0.000 0.000 0.000 0.000 4.66 Clear
02/26/2021 02:59 AM 42.62 38.48 33.08 68.18 43.16 69.0 Not Reported 0.45 E 0.00 E 3.13 W No 0.000 No Precipitation 02/24/2021 11:26 PM 02/24/2021 11:31 PM 0.000 0.000 0.000 0.000 0.000 4.57 Clear
02/26/2021 03:14 AM 41.90 37.40 31.46 68.18 43.16 66.0 Not Reported 0.89 E 1.57 E 0.67 E No 0.000 No Precipitation 02/24/2021 11:26 PM 02/24/2021 11:31 PM 0.000 0.000 0.000 0.000 0.000 4.66 Clear
02/26/2021 03:29 AM 39.20 35.78 31.46 68.18 43.16 73.0 Not Reported 0.45 S 1.57 SW 2.24 E No 0.000 No Precipitation 02/24/2021 11:26 PM 02/24/2021 11:31 PM 0.000 0.000 0.000 0.000 0.000 4.60 Clear
02/26/2021 03:44 AM 39.92 36.68 32.18 68.18 43.16 74.0 Not Reported 0.22 SW 0.89 SW 2.46 S No 0.000 No Precipitation 02/24/2021 11:26 PM 02/24/2021 11:31 PM 0.000 0.000 0.000 0.000 0.000 4.66 Clear
02/26/2021 03:59 AM 41.00 37.04 31.64 68.18 43.16 69.0 Not Reported 0.00 N 0.00 SE 2.91 SW No 0.000 No Precipitation 02/24/2021 11:26 PM 02/24/2021 11:31 PM 0.000 0.000 0.000 0.000 0.000 4.66 Clear
02/26/2021 04:14 AM 41.72 37.58 32.18 68.18 43.16 69.0 Not Reported 0.00 N 0.00 E 2.24 SW No 0.000 No Precipitation 02/24/2021 11:26 PM 02/24/2021 11:31 PM 0.000 0.000 0.000 0.000 0.000 4.56 Clear
02/26/2021 04:29 AM 39.56 36.32 32.00 68.18 43.16 74.0 Not Reported 2.24 SE 2.01 SE 0.00 SE No 0.000 No Precipitation 02/24/2021 11:26 PM 02/24/2021 11:31 PM 0.000 0.000 0.000 0.000 0.000 4.52 Clear
02/26/2021 04:44 AM 38.66 35.78 32.00 68.18 43.16 77.0 Not Reported 0.22 SE 0.00 SE 2.24 SE No 0.000 No Precipitation 02/24/2021 11:26 PM 02/24/2021 11:31 PM 0.000 0.000 0.000 0.000 0.000 4.46 Clear
02/26/2021 04:59 AM 38.66 35.96 32.36 68.18 43.16 78.0 Not Reported 1.12 SE 0.00 W 2.24 SE No 0.000 No Precipitation 02/24/2021 11:26 PM 02/24/2021 11:31 PM 0.000 0.000 0.000 0.000 0.000 4.65 Clear
02/26/2021 05:14 AM 40.28 36.86 32.18 68.18 43.16 73.0 Not Reported 0.22 S 0.00 S 0.67 SW No 0.000 No Precipitation 02/24/2021 11:26 PM 02/24/2021 11:31 PM 0.000 0.000 0.000 0.000 0.000 4.52 Clear
02/26/2021 05:29 AM 40.28 37.04 32.54 68.18 43.16 74.0 Not Reported 2.01 W 2.01 W 1.34 W No 0.000 No Precipitation 02/24/2021 11:26 PM 02/24/2021 11:31 PM 0.000 0.000 0.000 0.000 0.000 4.24 Clear
02/26/2021 05:44 AM 39.38 36.68 33.08 68.18 43.16 78.0 Not Reported 2.68 SW 3.80 SW 3.36 W No 0.000 No Precipitation 02/24/2021 11:26 PM 02/24/2021 11:31 PM 0.000 0.000 0.000 0.000 0.000 4.44 Clear
02/26/2021 05:59 AM 41.00 37.94 33.98 68.18 43.16 76.0 Not Reported 0.00 NW 1.79 NW 3.80 SW No 0.000 No Precipitation 02/24/2021 11:26 PM 02/24/2021 11:31 PM 0.000 0.000 0.000 0.000 0.000 4.37 Clear
02/26/2021 06:14 AM 39.38 36.68 33.08 68.18 43.16 78.0 Not Reported 1.12 W 0.00 NW 2.91 NW No 0.000 No Precipitation 02/24/2021 11:26 PM 02/24/2021 11:31 PM 0.000 0.000 0.000 0.000 0.000 4.48 Clear
02/26/2021 06:29 AM 40.46 37.22 33.08 68.18 43.16 75.0 Not Reported 0.89 NW 0.89 NW 2.01 W No 0.000 No Precipitation 02/24/2021 11:26 PM 02/24/2021 11:31 PM 0.000 0.000 0.000 0.000 0.000 4.46 Clear
02/26/2021 06:44 AM 41.00 37.58 32.90 68.18 43.16 73.0 Not Reported 0.22 W 0.89 N 2.68 N No 0.000 No Precipitation 02/24/2021 11:26 PM 02/24/2021 11:31 PM 0.000 0.000 0.000 0.000 0.000 4.03 Clear
02/26/2021 06:59 AM 40.82 37.40 33.08 68.18 43.16 74.0 Not Reported 1.57 N 1.79 NE 2.24 N No 0.000 No Precipitation 02/24/2021 11:26 PM 02/24/2021 11:31 PM 0.000 0.000 0.000 0.000 0.000 2.77 Clear
02/26/2021 07:14 AM 41.00 37.58 32.90 68.18 43.16 73.0 Not Reported 0.22 NW 0.22 NW 2.24 N No 0.000 No Precipitation 02/24/2021 11:26 PM 02/24/2021 11:31 PM 0.000 0.000 0.000 0.000 0.000 3.56 Clear
02/26/2021 07:29 AM 41.36 37.94 33.26 68.18 43.16 73.0 Not Reported 1.34 SW 0.89 E 1.34 N No 0.000 No Precipitation 02/24/2021 11:26 PM 02/24/2021 11:31 PM 0.000 0.000 0.000 0.000 0.000 3.80 Clear
02/26/2021 07:44 AM 44.06 39.56 33.80 68.18 43.16 67.0 Not Reported 1.57 NE 1.34 NE 3.13 N No 0.000 No Precipitation 02/24/2021 11:26 PM 02/24/2021 11:31 PM 0.000 0.000 0.000 0.000 0.000 3.53 Clear
02/26/2021 07:59 AM 44.06 39.92 34.88 68.18 43.16 70.0 Not Reported 2.24 W 1.12 SW 4.03 W No 0.000 No Precipitation 02/24/2021 11:26 PM 02/24/2021 11:31 PM 0.000 0.000 0.000 0.000 0.000 3.35 Clear
02/26/2021 08:14 AM 45.14 40.82 35.42 68.18 43.16 69.0 Not Reported 1.57 S 0.89 S 2.46 S No 0.000 No Precipitation 02/24/2021 11:26 PM 02/24/2021 11:31 PM 0.000 0.000 0.000 0.000 0.000 3.75 Clear
02/26/2021 08:29 AM 46.22 41.54 36.14 68.18 43.16 68.0 Not Reported 2.01 SE 2.68 SE 2.24 S No 0.000 No Precipitation 02/24/2021 11:26 PM 02/24/2021 11:31 PM 0.000 0.000 0.000 0.000 0.000 3.51 Clear
02/26/2021 08:44 AM 46.04 41.18 35.24 68.18 43.16 66.0 Not Reported 2.46 SE 3.80 SE 5.37 S No 0.000 No Precipitation 02/24/2021 11:26 PM 02/24/2021 11:31 PM 0.000 0.000 0.000 0.000 0.000 4.55 Clear
02/26/2021 08:59 AM 48.38 42.80 36.32 68.18 43.16 63.0 Not Reported 0.89 SE 2.46 SE 4.92 SE No 0.000 No Precipitation 02/24/2021 11:26 PM 02/24/2021 11:31 PM 0.000 0.000 0.000 0.000 0.000 4.45 Clear
02/26/2021 09:14 AM 49.46 43.16 36.14 68.18 43.16 60.0 Not Reported 2.01 S 2.46 SW 2.68 S No 0.000 No Precipitation 02/24/2021 11:26 PM 02/24/2021 11:31 PM 0.000 0.000 0.000 0.000 0.000 3.70 Clear
02/26/2021 09:29 AM 50.00 43.34 35.78 68.18 43.16 58.0 Not Reported 3.58 S 2.91 SE 3.36 SW No 0.000 No Precipitation 02/24/2021 11:26 PM 02/24/2021 11:31 PM 0.000 0.000 0.000 0.000 0.000 3.97 Clear
02/26/2021 09:44 AM 51.26 44.24 36.50 68.18 43.16 57.0 Not Reported 3.80 S 3.13 S 6.04 S No 0.000 No Precipitation 02/24/2021 11:26 PM 02/24/2021 11:31 PM 0.000 0.000 0.000 0.000 0.000 4.01 Clear
02/26/2021 09:59 AM 53.96 45.68 36.68 68.18 43.16 52.0 Not Reported 3.80 SW 0.67 W 4.47 S No 0.000 No Precipitation 02/24/2021 11:26 PM 02/24/2021 11:31 PM 0.000 0.000 0.000 0.000 0.000 3.91 Clear
02/26/2021 10:14 AM 54.86 45.86 35.96 68.18 43.16 49.0 Not Reported 4.47 SW 4.47 S 5.14 SW No 0.000 No Precipitation 02/24/2021 11:26 PM 02/24/2021 11:31 PM 0.000 0.000 0.000 0.000 0.000 4.66 Clear
02/26/2021 10:29 AM 55.58 46.94 38.12 68.18 43.16 52.0 Not Reported 3.58 SW 3.36 S 6.26 SW No 0.000 No Precipitation 02/24/2021 11:26 PM 02/24/2021 11:31 PM 0.000 0.000 0.000 0.000 0.000 4.45 Clear
02/26/2021 10:44 AM 57.02 46.76 35.78 68.18 43.16 45.0 Not Reported 2.46 W 1.12 S 5.37 S No 0.000 No Precipitation 02/24/2021 11:26 PM 02/24/2021 11:31 PM 0.000 0.000 0.000 0.000 0.000 3.89 Clear
02/26/2021 10:59 AM 57.92 48.02 37.76 68.18 43.16 47.0 Not Reported 3.58 W 2.46 SW 4.03 SE No 0.000 No Precipitation 02/24/2021 11:26 PM 02/24/2021 11:31 PM 0.000 0.000 0.000 0.000 0.000 4.66 Clear
02/26/2021 11:14 AM 58.10 47.12 36.32 68.18 43.16 44.0 Not Reported 1.57 W 0.22 SW 4.70 W No 0.000 No Precipitation 02/24/2021 11:26 PM 02/24/2021 11:31 PM 0.000 0.000 0.000 0.000 0.000 4.66 Clear
02/26/2021 11:29 AM 60.44 48.74 36.50 68.18 43.16 41.0 Not Reported 3.80 SW 1.34 SW 2.68 SW No 0.000 No Precipitation 02/24/2021 11:26 PM 02/24/2021 11:31 PM 0.000 0.000 0.000 0.000 0.000 4.66 Clear
02/26/2021 11:44 AM 60.98 48.74 35.78 68.18 43.16 39.0 Not Reported 1.12 SW 1.12 S 4.25 S No 0.000 No Precipitation 02/24/2021 11:26 PM 02/24/2021 11:31 PM 0.000 0.000 0.000 0.000 0.000 4.66 Clear
02/26/2021 11:59 AM 62.06 48.56 33.98 68.18 43.16 35.0 Not Reported 0.22 N 3.13 W 4.92 W No 0.000 No Precipitation 02/24/2021 11:26 PM 02/24/2021 11:31 PM 0.000 0.000 0.000 0.000 0.000 4.22 Clear
02/26/2021 12:14 PM 61.70 48.56 34.34 68.18 43.16 36.0 Not Reported 2.91 W 0.67 NW 4.70 NE No 0.000 No Precipitation 02/24/2021 11:26 PM 02/24/2021 11:31 PM 0.000 0.000 0.000 0.000 0.000 4.66 Clear
02/26/2021 12:29 PM 63.32 49.46 35.06 68.18 43.16 35.0 Not Reported 2.46 W 0.89 W 4.03 NW No 0.000 No Precipitation 02/24/2021 11:26 PM 02/24/2021 11:31 PM 0.000 0.000 0.000 0.000 0.000 4.47 Clear
02/26/2021 12:44 PM 64.58 50.00 34.70 68.18 43.16 33.0 Not Reported 2.46 N 2.68 SW 6.49 W No 0.000 No Precipitation 02/24/2021 11:26 PM 02/24/2021 11:31 PM 0.000 0.000 0.000 0.000 0.000 3.28 Clear
02/26/2021 12:59 PM 63.68 49.28 33.98 68.18 43.16 33.0 Not Reported 2.91 NE 2.68 N 4.92 W No 0.000 No Precipitation 02/24/2021 11:26 PM 02/24/2021 11:31 PM 0.000 0.000 0.000 0.000 0.000 3.92 Clear
02/26/2021 01:14 PM 65.30 49.82 33.08 68.18 43.16 30.0 Not Reported 3.80 NW 3.80 NW 6.26 NW No 0.000 No Precipitation 02/24/2021 11:26 PM 02/24/2021 11:31 PM 0.000 0.000 0.000 0.000 0.000 4.55 Clear
02/26/2021 01:29 PM 65.30 49.46 32.18 68.18 43.16 29.0 Not Reported 4.70 N 2.68 N 5.14 NW No 0.000 No Precipitation 02/24/2021 11:26 PM 02/24/2021 11:31 PM 0.000 0.000 0.000 0.000 0.000 4.66 Clear
02/26/2021 01:44 PM 66.56 49.82 31.64 68.18 43.16 27.0 Not Reported 2.91 NW 3.80 N 9.62 N No 0.000 No Precipitation 02/24/2021 11:26 PM 02/24/2021 11:31 PM 0.000 0.000 0.000 0.000 0.000 4.66 Clear
02/26/2021 01:59 PM 66.20 49.64 31.28 68.18 43.16 27.0 Not Reported 4.70 N 4.47 N 8.05 NW No 0.000 No Precipitation 02/24/2021 11:26 PM 02/24/2021 11:31 PM 0.000 0.000 0.000 0.000 0.000 4.66 Clear
02/26/2021 02:14 PM 67.10 50.18 32.00 68.18 43.16 27.0 Not Reported 0.89 N 1.34 E 9.40 N No 0.000 No Precipitation 02/24/2021 11:26 PM 02/24/2021 11:31 PM 0.000 0.000 0.000 0.000 0.000 4.66 Clear
02/26/2021 02:29 PM 65.84 49.10 30.20 68.18 43.16 26.0 Not Reported 5.82 NE 6.49 NE 7.38 NW No 0.000 No Precipitation 02/24/2021 11:26 PM 02/24/2021 11:31 PM 0.000 0.000 0.000 0.000 0.000 4.66 Clear
02/26/2021 02:44 PM 67.10 50.00 31.28 68.18 43.16 26.0 Not Reported 7.16 N 4.03 N 8.50 N No 0.000 No Precipitation 02/24/2021 11:26 PM 02/24/2021 11:31 PM 0.000 0.000 0.000 0.000 0.000 4.66 Clear
02/26/2021 02:59 PM 66.92 49.82 31.10 68.18 43.16 26.0 Not Reported 5.82 NE 4.25 N 8.95 NE No 0.000 No Precipitation 02/24/2021 11:26 PM 02/24/2021 11:31 PM 0.000 0.000 0.000 0.000 0.000 4.22 Clear
02/26/2021 03:14 PM 66.38 49.46 30.56 68.18 43.16 26.0 Not Reported 6.93 N 6.26 NE 8.50 N No 0.000 No Precipitation 02/24/2021 11:26 PM 02/24/2021 11:31 PM 0.000 0.000 0.000 0.000 0.000 4.66 Clear
02/26/2021 03:29 PM 66.56 49.28 29.84 68.18 43.16 25.0 Not Reported 6.26 N 4.92 NE 7.61 N No 0.000 No Precipitation 02/24/2021 11:26 PM 02/24/2021 11:31 PM 0.000 0.000 0.000 0.000 0.000 4.66 Clear
02/26/2021 03:44 PM 67.64 50.00 30.74 68.18 43.16 25.0 Not Reported 4.25 N 4.70 N 7.61 NE No 0.000 No Precipitation 02/24/2021 11:26 PM 02/24/2021 11:31 PM 0.000 0.000 0.000 0.000 0.000 4.64 Clear
02/26/2021 03:59 PM 68.36 50.54 31.28 68.18 43.16 25.0 Not Reported 0.89 N 0.45 N 6.26 N No 0.000 No Precipitation 02/24/2021 11:26 PM 02/24/2021 11:31 PM 0.000 0.000 0.000 0.000 0.000 4.66 Clear
02/26/2021 04:14 PM 68.54 50.72 31.46 68.54 37.76 25.0 Not Reported 1.79 NW 1.79 N 3.80 W No 0.000 No Precipitation 02/24/2021 11:26 PM 02/24/2021 11:31 PM 0.000 0.000 0.000 0.000 0.000 4.59 Clear
02/26/2021 04:29 PM 67.82 50.18 30.92 68.54 37.76 25.0 Not Reported 2.68 N 1.12 NW 5.37 N No 0.000 No Precipitation 02/24/2021 11:26 PM 02/24/2021 11:31 PM 0.000 0.000 0.000 0.000 0.000 4.66 Clear
02/26/2021 04:44 PM 68.18 50.72 32.00 68.54 37.76 26.0 Not Reported 3.36 NW 3.58 W 4.70 NW No 0.000 No Precipitation 02/24/2021 11:26 PM 02/24/2021 11:31 PM 0.000 0.000 0.000 0.000 0.000 4.66 Clear
02/26/2021 04:59 PM 67.82 50.54 31.82 68.54 37.76 26.0 Not Reported 3.13 NW 2.46 W 5.37 W No 0.000 No Precipitation 02/24/2021 11:26 PM 02/24/2021 11:31 PM 0.000 0.000 0.000 0.000 0.000 4.66 Clear
02/26/2021 05:14 PM 67.10 50.18 32.00 68.54 37.76 27.0 Not Reported 3.80 W 2.91 NW 5.37 W No 0.000 No Precipitation 02/24/2021 11:26 PM 02/24/2021 11:31 PM 0.000 0.000 0.000 0.000 0.000 4.66 Clear
02/26/2021 05:29 PM 66.74 49.64 30.92 68.54 37.76 26.0 Not Reported 1.57 NW 2.01 N 4.03 NW No 0.000 No Precipitation 02/24/2021 11:26 PM 02/24/2021 11:31 PM 0.000 0.000 0.000 0.000 0.000 4.66 Clear
02/26/2021 05:44 PM 66.02 49.28 30.20 68.54 37.76 26.0 Not Reported 1.79 NW 2.01 NW 2.68 NW No 0.000 No Precipitation 02/24/2021 11:26 PM 02/24/2021 11:31 PM 0.000 0.000 0.000 0.000 0.000 4.66 Clear
02/26/2021 05:59 PM 64.94 48.92 31.10 68.54 37.76 28.0 Not Reported 1.34 NW 0.89 NW 2.68 NW No 0.000 No Precipitation 02/24/2021 11:26 PM 02/24/2021 11:31 PM 0.000 0.000 0.000 0.000 0.000 4.66 Clear
02/26/2021 06:14 PM 63.86 48.92 32.54 68.54 37.76 31.0 Not Reported 2.91 W 2.46 W 3.80 NW No 0.000 No Precipitation 02/24/2021 11:26 PM 02/24/2021 11:31 PM 0.000 0.000 0.000 0.000 0.000 4.66 Clear
02/26/2021 06:29 PM 62.06 48.74 34.70 68.54 37.76 36.0 Not Reported 4.47 NW 3.58 NW 4.47 NW No 0.000 No Precipitation 02/24/2021 11:26 PM 02/24/2021 11:31 PM 0.000 0.000 0.000 0.000 0.000 4.66 Clear
02/26/2021 06:44 PM 61.52 48.92 35.60 68.54 37.76 38.0 Not Reported 5.14 W 4.47 W 6.93 NW No 0.000 No Precipitation 02/24/2021 11:26 PM 02/24/2021 11:31 PM 0.000 0.000 0.000 0.000 0.000 4.66 Clear
02/26/2021 06:59 PM 60.44 50.18 40.64 68.54 37.76 48.0 Not Reported 8.28 W 6.49 W 9.62 W No 0.000 No Precipitation 02/24/2021 11:26 PM 02/24/2021 11:31 PM 0.000 0.000 0.000 0.000 0.000 4.66 Clear
02/26/2021 07:14 PM 59.54 50.72 42.80 68.54 37.76 54.0 Not Reported 6.71 W 6.93 W 9.40 W No 0.000 No Precipitation 02/24/2021 11:26 PM 02/24/2021 11:31 PM 0.000 0.000 0.000 0.000 0.000 4.49 Clear
02/26/2021 07:29 PM 58.64 50.54 43.34 68.54 37.76 57.0 Not Reported 8.50 W 4.70 W 10.07 W No 0.000 No Precipitation 02/24/2021 11:26 PM 02/24/2021 11:31 PM 0.000 0.000 0.000 0.000 0.000 4.54 Clear
02/26/2021 07:44 PM 57.92 50.36 43.70 68.54 37.76 59.0 Not Reported 2.91 W 4.47 W 5.14 W No 0.000 No Precipitation 02/24/2021 11:26 PM 02/24/2021 11:31 PM 0.000 0.000 0.000 0.000 0.000 4.55 Clear
02/26/2021 07:59 PM 57.02 50.00 43.70 68.54 37.76 61.0 Not Reported 2.46 NW 1.12 W 5.82 W No 0.000 No Precipitation 02/24/2021 11:26 PM 02/24/2021 11:31 PM 0.000 0.000 0.000 0.000 0.000 4.50 Clear
02/26/2021 08:14 PM 56.12 49.28 43.16 68.54 37.76 62.0 Not Reported 2.68 W 2.01 W 4.03 W No 0.000 No Precipitation 02/24/2021 11:26 PM 02/24/2021 11:31 PM 0.000 0.000 0.000 0.000 0.000 4.54 Clear
02/26/2021 08:29 PM 55.76 49.28 43.34 68.54 37.76 63.0 Not Reported 1.57 NW 2.01 N 3.80 W No 0.000 No Precipitation 02/24/2021 11:26 PM 02/24/2021 11:31 PM 0.000 0.000 0.000 0.000 0.000 4.49 Clear
02/26/2021 08:44 PM 54.50 48.74 43.34 68.54 37.76 66.0 Not Reported 3.58 W 3.13 NW 4.47 NW No 0.000 No Precipitation 02/24/2021 11:26 PM 02/24/2021 11:31 PM 0.000 0.000 0.000 0.000 0.000 4.36 Clear
02/26/2021 08:59 PM 53.96 48.56 43.16 68.54 37.76 67.0 Not Reported 3.13 NW 2.46 NW 4.03 W No 0.000 No Precipitation 02/24/2021 11:26 PM 02/24/2021 11:31 PM 0.000 0.000 0.000 0.000 0.000 4.24 Clear
02/26/2021 09:14 PM 52.70 47.84 43.52 68.54 37.76 71.0 Not Reported 3.58 NW 1.79 NW 8.95 N No 0.000 No Precipitation 02/24/2021 11:26 PM 02/24/2021 11:31 PM 0.000 0.000 0.000 0.000 0.000 4.42 Clear
02/26/2021 09:29 PM 52.70 47.84 43.52 68.54 37.76 71.0 Not Reported 1.12 N 4.70 NE 2.91 W No 0.000 No Precipitation 02/24/2021 11:26 PM 02/24/2021 11:31 PM 0.000 0.000 0.000 0.000 0.000 4.29 Clear
02/26/2021 09:44 PM 52.16 47.66 43.34 68.54 37.76 72.0 Not Reported 2.68 N 1.79 N 3.36 NW No 0.000 No Precipitation 02/24/2021 11:26 PM 02/24/2021 11:31 PM 0.000 0.000 0.000 0.000 0.000 4.07 Clear
02/26/2021 09:59 PM 52.52 47.30 42.26 68.54 37.76 68.0 Not Reported 4.47 NE 5.14 NE 3.80 N No 0.000 No Precipitation 02/24/2021 11:26 PM 02/24/2021 11:31 PM 0.000 0.000 0.000 0.000 0.000 4.21 Clear
02/26/2021 10:14 PM 53.06 45.50 37.22 68.54 37.76 55.0 Not Reported 5.14 N 6.49 N 6.26 NE No 0.000 No Precipitation 02/24/2021 11:26 PM 02/24/2021 11:31 PM 0.000 0.000 0.000 0.000 0.000 4.66 Clear
02/26/2021 10:29 PM 53.78 43.70 31.28 68.54 37.76 42.0 Not Reported 7.16 N 7.83 NE 9.17 N No 0.000 No Precipitation 02/24/2021 11:26 PM 02/24/2021 11:31 PM 0.000 0.000 0.000 0.000 0.000 4.66 Clear
02/26/2021 10:44 PM 54.14 43.34 29.84 68.54 37.76 39.0 Not Reported 8.95 NE 6.93 N 10.74 N No 0.000 No Precipitation 02/24/2021 11:26 PM 02/24/2021 11:31 PM 0.000 0.000 0.000 0.000 0.000 4.66 Clear
02/26/2021 10:59 PM 53.60 42.98 29.30 68.54 37.76 39.0 Not Reported 8.28 NE 6.26 N 9.84 NE No 0.000 No Precipitation 02/24/2021 11:26 PM 02/24/2021 11:31 PM 0.000 0.000 0.000 0.000 0.000 4.66 Clear
02/26/2021 11:14 PM 52.70 42.80 30.38 68.54 37.76 42.0 Not Reported 6.93 N 6.04 NE 8.50 N No 0.000 No Precipitation 02/24/2021 11:26 PM 02/24/2021 11:31 PM 0.000 0.000 0.000 0.000 0.000 4.66 Clear
02/26/2021 11:29 PM 51.62 42.08 30.02 68.54 37.76 43.0 Not Reported 11.63 N 10.96 N 12.97 N No 0.000 No Precipitation 02/24/2021 11:26 PM 02/24/2021 11:31 PM 0.000 0.000 0.000 0.000 0.000 4.66 Clear
02/26/2021 11:44 PM 51.08 41.90 30.02 68.54 37.76 44.0 Not Reported 8.95 N 15.66 N 14.76 W No 0.000 No Precipitation 02/24/2021 11:26 PM 02/24/2021 11:31 PM 0.000 0.000 0.000 0.000 0.000 4.66 Clear
02/26/2021 11:59 PM 50.54 41.54 30.02 68.54 37.76 45.0 Not Reported 9.84 N 9.17 N 15.66 N No 0.000 No Precipitation 02/24/2021 11:26 PM 02/24/2021 11:31 PM 0.000 0.000 0.000 0.000 0.000 4.66 Clear